Carcassonne Airport

LFMK · Aude, Occitanie, 法国

罗盘
风向 的 风向 270° Carcassonne Airport 10/28
风: 10 kt, 3 beaufort

10 kt

1 kt
改变
0 1.000 2.000 3.000 4.000 5.000
OVC 300 ft
SPECI LFMK 300530Z AUTO 27010KT 9999 OVC003 05/05 Q1019 TEMPO 4000 BR

METAR Carcassonne Airport - LFMK/CCF

Carcassonne Airport是,法国中的中型机场。 该机场有2条跑道: 10/28 和 9/27. 该领域的国际民航组织标志是LFMK 它的国际航空运输协会代码是CCF.

这份报告是针对2022年11月30日 06:30, 当地时间在Carcassonne Airport进行的。

机场观察

风向为270°,速度为10 kt。

可见度为10 km 或者更多。

有乌云密布在300 ft的高度。 破损或更高的上限为300 ft。

温度为5 °C,阵风为-1 °C。 露点为5 °C,相对湿度为100%。 海平面上的气压为1019 hPa (QNH)。

发展趋势

  • 暂时的

    可变方向的风很小或没有。 可见性变为4 km。 重大天气:薄雾。

白天

今天,太阳从08:01升起,在17:17降落。 这适用于Carcassonne Airport,世界夏令时可能有所不同。 当地时间与世界标准时间之间的时差为+1 小时。 当前,没有夏令时有效。

公司介绍

在这个机场,你可以找到飞行俱乐部。 本场上唯一已知的公司是Aéroclub de Pilotes Audois。

体会

到Vliegles.nl去找飞行课程,跳伞和其他飞行体验。 浏览页面,了解Carcassonne Airport附近所有可用的活动。 你也可以使用搜索功能来寻找你所在地附近的特定飞行课程、跳伞或其他飞行体验。

跑道

Id 标题 侧风 逆风 侧风 %
10/28 097°-277° 1 kt 10 kt 12 %
9/27 097°-277° 1 kt 10 kt 12 %

逆风成分最大的方向会被突出显示,并用于横风计算。 这并不一定意味着这个方向在使用。

乌云

300 ft OVC 乌云密布

温度 & 天气

温度 5 °C
露点 5 °C
相对湿度 100%
风寒 -1 °C
Kp-index 0 (0-9)

白天

日出
08:01 (49m)
中午
12:39
日落
17:17

小工具

你想在你的网站上有一个关于Carcassonne Airport的当前航空天气(METAR)的小部件吗?

显示HTML代码

我们和第三方通过cookies跟踪您在我们网站上的互联网行为。如果你继续,我们认为你同意我们的饼干政策